DW9937 Eastsound WA US current weather conditions

sailwx.info

Wind from 338 at 0 knots gusting 0

Air temperature 15.6° C
Dewpoint 9.9° C

Last reported at 2019-Jun-27 06:40 UTC.
Time now 2019-Jun-27 08:14 UTC

Location: N 48°38' W 122°57'.
View on Google Maps.

See reports from other nearby stations

  
Tides and Currents Weather Stations Pressure Air Temp Water Temp Dewpoint Dewpoint Depression Visibility Wind Speed Wind Dir Waves Ship Positions
date/time (UTC)wind fromknots sea level pressurealtimeterstation pressurevisibilityair tempwater tempwave heightnotes
2019-Jun-27 06:40 338 0 gusting 0 15.6
2019-Jun-27 06:11 293 0 gusting 0 15.0
2019-Jun-27 05:10 135 16.1
2019-Jun-27 03:41 315 17.2
2019-Jun-27 03:10 113 1 gusting 1 17.8
2019-Jun-27 02:40 203 3 gusting 3 17.8
2019-Jun-27 02:11 135 1 gusting 1 18.3
2019-Jun-27 01:10 135 0 gusting 0 20.0
2019-Jun-27 00:40 225 2 gusting 2 21.7
2019-Jun-27 00:11 158 2 gusting 2 22.8
2019-Jun-26 23:40 225 1 gusting 1 22.8
2019-Jun-26 23:10 135 3 gusting 3 22.8
2019-Jun-26 12:10 225 11.1
2019-Jun-26 11:40 338 11.1
2019-Jun-26 11:12 023 11.1
2019-Jun-26 10:10 090 11.7
2019-Jun-26 09:41 068 11.7
2019-Jun-26 09:10 135 11.7
2019-Jun-26 08:40 068 0 gusting 0 12.2
2019-Jun-26 08:10 068 1 gusting 1 12.8
2019-Jun-26 05:10 113 1 gusting 1 16.7
2019-Jun-26 04:40 135 18.3
2019-Jun-26 04:10 135 19.4
2019-Jun-26 03:43 225 20.6
2019-Jun-26 02:40 180 2 gusting 2 22.2
2019-Jun-26 02:10 135 1 gusting 1 22.2
2019-Jun-26 01:40 225 0 gusting 0 22.8
2019-Jun-26 01:10 248 5 gusting 5 23.3
2019-Jun-26 00:40 315 5 gusting 5 23.3
2019-Jun-25 23:40 270 3 gusting 3 23.3
2019-Jun-25 23:11 270 4 gusting 4 23.3
2019-Jun-25 22:40 270 4 gusting 4 23.3
2019-Jun-25 22:11 270 4 gusting 4 22.8
2019-Jun-25 21:40 248 4 gusting 4 22.8
2019-Jun-25 20:40 248 2 gusting 2 22.8
2019-Jun-25 20:10 270 0 gusting 0 22.2
2019-Jun-25 19:41 315 5 gusting 5 21.7
2019-Jun-25 19:10 225 6 gusting 6 21.1
2019-Jun-25 18:40 180 2 gusting 2 20.6
2019-Jun-25 18:10 225 2 gusting 2 20.0
2019-Jun-25 17:40 225 3 gusting 3 18.9
2019-Jun-25 17:10 248 2 gusting 2 18.9
2019-Jun-25 16:40 203 2 gusting 2 18.3
2019-Jun-25 16:10 225 0 gusting 0 17.8
2019-Jun-25 15:11 225 17.8
2019-Jun-25 08:40 068 0 gusting 0 10.0
2019-Jun-25 08:12 068 1 gusting 1 10.6